sensor_id;sensor_type;location;lat;lon;timestamp;pressure;altitude;pressure_sealevel;temperature;humidity
65756;BME280;52489;47.502;18.940;2023-04-10T00:00:27;98843.47;;;3.42;87.13
65756;BME280;52489;47.502;18.940;2023-04-10T00:01:33;98847.97;;;3.47;87.13
65756;BME280;52489;47.502;18.940;2023-04-10T00:02:38;98843.81;;;3.46;86.89
65756;BME280;52489;47.502;18.940;2023-04-10T00:03:41;98838.97;;;3.50;86.88
65756;BME280;52489;47.502;18.940;2023-04-10T00:04:44;98830.41;;;3.49;86.75
65756;BME280;52489;47.502;18.940;2023-04-10T00:05:47;98844.94;;;3.50;86.69
65756;BME280;52489;47.502;18.940;2023-04-10T00:06:50;98839.19;;;3.48;86.79
65756;BME280;52489;47.502;18.940;2023-04-10T00:07:54;98828.81;;;3.48;86.76
65756;BME280;52489;47.502;18.940;2023-04-10T00:08:58;98832.44;;;3.47;86.72
65756;BME280;52489;47.502;18.940;2023-04-10T00:10:01;98830.19;;;3.51;86.53
65756;BME280;52489;47.502;18.940;2023-04-10T00:11:04;98830.41;;;3.49;86.20
65756;BME280;52489;47.502;18.940;2023-04-10T00:12:07;98830.62;;;3.48;86.41
65756;BME280;52489;47.502;18.940;2023-04-10T00:13:10;98826.13;;;3.43;86.41
65756;BME280;52489;47.502;18.940;2023-04-10T00:14:13;98832.31;;;3.42;86.64
65756;BME280;52489;47.502;18.940;2023-04-10T00:15:16;98833.88;;;3.55;86.30
65756;BME280;52489;47.502;18.940;2023-04-10T00:16:19;98827.09;;;3.65;85.84
65756;BME280;52489;47.502;18.940;2023-04-10T00:17:22;98825.41;;;3.59;85.70
65756;BME280;52489;47.502;18.940;2023-04-10T00:18:25;98823.84;;;3.58;85.92
65756;BME280;52489;47.502;18.940;2023-04-10T00:19:28;98825.09;;;3.56;85.82
65756;BME280;52489;47.502;18.940;2023-04-10T00:20:32;98820.50;;;3.46;86.21
65756;BME280;52489;47.502;18.940;2023-04-10T00:21:35;98821.75;;;3.44;86.39
65756;BME280;52489;47.502;18.940;2023-04-10T00:22:38;98823.00;;;3.41;86.40
65756;BME280;52489;47.502;18.940;2023-04-10T00:23:41;98825.59;;;3.41;86.49
65756;BME280;52489;47.502;18.940;2023-04-10T00:24:44;98827.03;;;3.37;86.48
65756;BME280;52489;47.502;18.940;2023-04-10T00:25:47;98824.44;;;3.37;86.39
65756;BME280;52489;47.502;18.940;2023-04-10T00:26:51;98821.84;;;3.37;86.34
65756;BME280;52489;47.502;18.940;2023-04-10T00:27:53;98819.84;;;3.39;86.18
65756;BME280;52489;47.502;18.940;2023-04-10T00:28:56;98817.69;;;3.36;86.14
65756;BME280;52489;47.502;18.940;2023-04-10T00:29:59;98818.41;;;3.31;86.17
65756;BME280;52489;47.502;18.940;2023-04-10T00:31:04;98819.84;;;3.39;86.22
65756;BME280;52489;47.502;18.940;2023-04-10T00:32:07;98826.03;;;3.38;86.19
65756;BME280;52489;47.502;18.940;2023-04-10T00:33:10;98822.44;;;3.39;86.18
65756;BME280;52489;47.502;18.940;2023-04-10T00:34:13;98824.22;;;3.38;86.16
65756;BME280;52489;47.502;18.940;2023-04-10T00:35:16;98820.75;;;3.33;86.27
65756;BME280;52489;47.502;18.940;2023-04-10T00:36:19;98821.00;;;3.31;86.39
65756;BME280;52489;47.502;18.940;2023-04-10T00:37:22;98817.06;;;3.29;86.58
65756;BME280;52489;47.502;18.940;2023-04-10T00:38:25;98822.69;;;3.26;86.78
65756;BME280;52489;47.502;18.940;2023-04-10T00:39:28;98815.81;;;3.31;86.77
65756;BME280;52489;47.502;18.940;2023-04-10T00:40:31;98821.22;;;3.30;86.50
65756;BME280;52489;47.502;18.940;2023-04-10T00:41:34;98819.53;;;3.24;86.81
65756;BME280;52489;47.502;18.940;2023-04-10T00:42:37;98825.03;;;3.27;86.81
65756;BME280;52489;47.502;18.940;2023-04-10T00:43:42;98823.34;;;3.33;86.70
65756;BME280;52489;47.502;18.940;2023-04-10T00:44:45;98820.88;;;3.26;87.15
65756;BME280;52489;47.502;18.940;2023-04-10T00:45:48;98820.31;;;3.24;87.29
65756;BME280;52489;47.502;18.940;2023-04-10T00:46:52;98816.38;;;3.22;87.63
65756;BME280;52489;47.502;18.940;2023-04-10T00:47:55;98818.19;;;3.21;87.69
65756;BME280;52489;47.502;18.940;2023-04-10T00:48:59;98813.56;;;3.23;87.62
65756;BME280;52489;47.502;18.940;2023-04-10T00:50:03;98811.53;;;3.25;87.49
65756;BME280;52489;47.502;18.940;2023-04-10T00:51:07;98813.31;;;3.25;87.59
65756;BME280;52489;47.502;18.940;2023-04-10T00:52:10;98807.38;;;3.24;87.44
65756;BME280;52489;47.502;18.940;2023-04-10T00:53:13;98805.22;;;3.21;87.27
65756;BME280;52489;47.502;18.940;2023-04-10T00:54:16;98817.16;;;3.22;87.21
65756;BME280;52489;47.502;18.940;2023-04-10T00:55:20;98814.34;;;3.24;87.25
65756;BME280;52489;47.502;18.940;2023-04-10T00:56:23;98810.97;;;3.23;87.43
65756;BME280;52489;47.502;18.940;2023-04-10T00:57:27;98813.31;;;3.25;87.45
65756;BME280;52489;47.502;18.940;2023-04-10T00:58:30;98806.69;;;3.29;87.34
65756;BME280;52489;47.502;18.940;2023-04-10T00:59:34;98804.66;;;3.31;87.23
65756;BME280;52489;47.502;18.940;2023-04-10T01:00:37;98807.59;;;3.34;87.16
65756;BME280;52489;47.502;18.940;2023-04-10T01:01:42;98802.88;;;3.31;87.24
65756;BME280;52489;47.502;18.940;2023-04-10T01:02:45;98808.25;;;3.30;87.21
65756;BME280;52489;47.502;18.940;2023-04-10T01:03:49;98806.13;;;3.27;87.27
65756;BME280;52489;47.502;18.940;2023-04-10T01:04:52;98807.22;;;3.31;87.24
65756;BME280;52489;47.502;18.940;2023-04-10T01:09:48;98809.03;;;3.30;87.40
65756;BME280;52489;47.502;18.940;2023-04-10T01:11:06;98811.63;;;3.30;87.50
65756;BME280;52489;47.502;18.940;2023-04-10T01:13:49;98799.25;;;3.32;87.60
65756;BME280;52489;47.502;18.940;2023-04-10T01:15:10;98803.72;;;3.37;87.33
65756;BME280;52489;47.502;18.940;2023-04-10T01:16:21;98810.38;;;3.33;87.53
65756;BME280;52489;47.502;18.940;2023-04-10T01:17:28;98808.03;;;3.31;87.70
65756;BME280;52489;47.502;18.940;2023-04-10T01:18:54;98802.63;;;3.33;87.74
65756;BME280;52489;47.502;18.940;2023-04-10T01:20:15;98798.56;;;3.37;87.66
65756;BME280;52489;47.502;18.940;2023-04-10T01:21:21;98798.00;;;3.35;87.84
65756;BME280;52489;47.502;18.940;2023-04-10T01:23:20;98795.63;;;3.33;88.00
65756;BME280;52489;47.502;18.940;2023-04-10T01:24:06;98796.53;;;3.39;87.85
65756;BME280;52489;47.502;18.940;2023-04-10T01:29:13;98804.41;;;3.44;87.82
65756;BME280;52489;47.502;18.940;2023-04-10T01:30:22;98796.84;;;3.42;87.77
65756;BME280;52489;47.502;18.940;2023-04-10T01:32:34;98795.50;;;3.40;87.75
65756;BME280;52489;47.502;18.940;2023-04-10T01:33:57;98793.47;;;3.42;87.74
65756;BME280;52489;47.502;18.940;2023-04-10T01:35:05;98791.78;;;3.48;87.68
65756;BME280;52489;47.502;18.940;2023-04-10T01:36:10;98793.47;;;3.42;88.21
65756;BME280;52489;47.502;18.940;2023-04-10T01:37:26;98791.34;;;3.39;88.40
65756;BME280;52489;47.502;18.940;2023-04-10T01:38:32;98790.31;;;3.40;88.45
65756;BME280;52489;47.502;18.940;2023-04-10T01:39:38;98788.53;;;3.40;88.40
65756;BME280;52489;47.502;18.940;2023-04-10T01:40:44;98792.69;;;3.41;88.28
65756;BME280;52489;47.502;18.940;2023-04-10T01:41:53;98788.28;;;3.42;88.22
65756;BME280;52489;47.502;18.940;2023-04-10T01:42:58;98791.13;;;3.40;88.46
65756;BME280;52489;47.502;18.940;2023-04-10T01:44:02;98787.72;;;3.40;88.54
65756;BME280;52489;47.502;18.940;2023-04-10T01:45:08;98792.69;;;3.41;88.22
65756;BME280;52489;47.502;18.940;2023-04-10T01:46:15;98796.84;;;3.42;88.23
65756;BME280;52489;47.502;18.940;2023-04-10T01:47:20;98789.53;;;3.39;88.47
65756;BME280;52489;47.502;18.940;2023-04-10T01:48:24;98792.91;;;3.40;88.53
65756;BME280;52489;47.502;18.940;2023-04-10T01:49:29;98790.56;;;3.38;88.55
65756;BME280;52489;47.502;18.940;2023-04-10T01:50:34;98790.31;;;3.40;88.41
65756;BME280;52489;47.502;18.940;2023-04-10T01:51:37;98788.53;;;3.40;88.46
65756;BME280;52489;47.502;18.940;2023-04-10T01:52:41;98787.50;;;3.41;88.41
65756;BME280;52489;47.502;18.940;2023-04-10T01:53:46;98791.91;;;3.41;88.45
65756;BME280;52489;47.502;18.940;2023-04-10T01:54:51;98793.72;;;3.40;88.44
65756;BME280;52489;47.502;18.940;2023-04-10T01:55:55;98794.72;;;3.39;88.51
65756;BME280;52489;47.502;18.940;2023-04-10T01:56:58;98790.09;;;3.41;88.45
65756;BME280;52489;47.502;18.940;2023-04-10T01:58:02;98789.09;;;3.42;88.39
65756;BME280;52489;47.502;18.940;2023-04-10T01:59:06;98791.47;;;3.44;88.13
65756;BME280;52489;47.502;18.940;2023-04-10T02:00:10;98785.25;;;3.45;88.04
65756;BME280;52489;47.502;18.940;2023-04-10T02:01:20;98792.03;;;3.46;87.72
65756;BME280;52489;47.502;18.940;2023-04-10T02:02:32;98789.66;;;3.45;87.27
65756;BME280;52489;47.502;18.940;2023-04-10T02:03:36;98791.22;;;3.46;87.56
65756;BME280;52489;47.502;18.940;2023-04-10T02:04:39;98790.22;;;3.47;87.59
65756;BME280;52489;47.502;18.940;2023-04-10T02:08:35;98792.81;;;3.47;87.27
65756;BME280;52489;47.502;18.940;2023-04-10T02:10:56;98798.53;;;3.49;87.46
65756;BME280;52489;47.502;18.940;2023-04-10T02:12:05;98795.72;;;3.50;87.38
65756;BME280;52489;47.502;18.940;2023-04-10T02:13:10;98795.16;;;3.48;87.41
65756;BME280;52489;47.502;18.940;2023-04-10T02:14:17;98782.75;;;3.50;87.28
65756;BME280;52489;47.502;18.940;2023-04-10T02:15:23;98793.34;;;3.49;87.02
65756;BME280;52489;47.502;18.940;2023-04-10T02:16:29;98791.31;;;3.51;86.82
65756;BME280;52489;47.502;18.940;2023-04-10T02:17:35;98791.00;;;3.47;86.95
65756;BME280;52489;47.502;18.940;2023-04-10T02:18:41;98785.25;;;3.45;86.98
65756;BME280;52489;47.502;18.940;2023-04-10T02:19:47;98794.03;;;3.44;86.60
65756;BME280;52489;47.502;18.940;2023-04-10T02:20:51;98794.63;;;3.46;86.72
65756;BME280;52489;47.502;18.940;2023-04-10T02:21:56;98794.47;;;3.53;86.55
65756;BME280;52489;47.502;18.940;2023-04-10T02:23:01;98793.59;;;3.47;86.61
65756;BME280;52489;47.502;18.940;2023-04-10T02:24:06;98797.63;;;3.43;86.85
65756;BME280;52489;47.502;18.940;2023-04-10T02:25:09;98791.34;;;3.39;87.26
65756;BME280;52489;47.502;18.940;2023-04-10T02:26:13;98793.72;;;3.40;87.37
65756;BME280;52489;47.502;18.940;2023-04-10T02:27:32;98790.75;;;3.49;86.97
65756;BME280;52489;47.502;18.940;2023-04-10T02:28:38;98789.87;;;3.43;87.37
65756;BME280;52489;47.502;18.940;2023-04-10T02:29:41;98788.63;;;3.46;87.34
65756;BME280;52489;47.502;18.940;2023-04-10T02:30:44;98789.66;;;3.45;87.26
65756;BME280;52489;47.502;18.940;2023-04-10T02:31:49;98783.22;;;3.47;87.08
65756;BME280;52489;47.502;18.940;2023-04-10T02:32:52;98782.97;;;3.49;87.01
65756;BME280;52489;47.502;18.940;2023-04-10T02:33:55;98789.19;;;3.48;87.17
65756;BME280;52489;47.502;18.940;2023-04-10T02:34:58;98785.81;;;3.47;87.11
65756;BME280;52489;47.502;18.940;2023-04-10T02:36:01;98781.19;;;3.49;87.11
65756;BME280;52489;47.502;18.940;2023-04-10T02:37:05;98777.03;;;3.48;87.07
65756;BME280;52489;47.502;18.940;2023-04-10T02:38:08;98776.03;;;3.49;87.11
65756;BME280;52489;47.502;18.940;2023-04-10T02:39:11;98780.19;;;3.50;86.99
65756;BME280;52489;47.502;18.940;2023-04-10T02:40:14;98778.16;;;3.52;86.79
65756;BME280;52489;47.502;18.940;2023-04-10T02:41:17;98778.94;;;3.53;86.68
65756;BME280;52489;47.502;18.940;2023-04-10T02:42:21;98779.72;;;3.53;86.67
65756;BME280;52489;47.502;18.940;2023-04-10T02:43:23;98772.81;;;3.59;86.50
65756;BME280;52489;47.502;18.940;2023-04-10T02:44:27;98776.19;;;3.59;86.40
65756;BME280;52489;47.502;18.940;2023-04-10T02:45:30;98778.31;;;3.62;86.35
65756;BME280;52489;47.502;18.940;2023-04-10T02:46:34;98773.41;;;3.61;86.26
65756;BME280;52489;47.502;18.940;2023-04-10T02:47:37;98773.41;;;3.61;86.19
65756;BME280;52489;47.502;18.940;2023-04-10T02:48:40;98771.03;;;3.59;86.14
65756;BME280;52489;47.502;18.940;2023-04-10T02:49:44;98776.09;;;3.54;86.34
65756;BME280;52489;47.502;18.940;2023-04-10T02:50:47;98768.09;;;3.56;86.25
65756;BME280;52489;47.502;18.940;2023-04-10T02:51:50;98768.78;;;3.51;86.53
65756;BME280;52489;47.502;18.940;2023-04-10T02:52:53;98763.59;;;3.51;86.58
65756;BME280;52489;47.502;18.940;2023-04-10T02:53:56;98770.38;;;3.52;86.50
65756;BME280;52489;47.502;18.940;2023-04-10T02:54:59;98764.63;;;3.50;86.54
65756;BME280;52489;47.502;18.940;2023-04-10T02:56:03;98766.44;;;3.50;86.48
65756;BME280;52489;47.502;18.940;2023-04-10T02:57:08;98764.06;;;3.48;86.49
65756;BME280;52489;47.502;18.940;2023-04-10T02:58:11;98765.87;;;3.48;86.59
65756;BME280;52489;47.502;18.940;2023-04-10T02:59:16;98767.69;;;3.47;86.64
65756;BME280;52489;47.502;18.940;2023-04-10T03:00:20;98760.94;;;3.46;86.62
65756;BME280;52489;47.502;18.940;2023-04-10T03:01:23;98771.06;;;3.48;86.59
65756;BME280;52489;47.502;18.940;2023-04-10T03:02:26;98772.31;;;3.45;86.61
65756;BME280;52489;47.502;18.940;2023-04-10T03:03:30;98763.53;;;3.46;86.59
65756;BME280;52489;47.502;18.940;2023-04-10T03:04:34;98761.63;;;3.41;86.70
65756;BME280;52489;47.502;18.940;2023-04-10T03:05:37;98769.38;;;3.41;86.80
65756;BME280;52489;47.502;18.940;2023-04-10T03:06:52;98759.25;;;3.40;86.60
65756;BME280;52489;47.502;18.940;2023-04-10T03:07:56;98759.94;;;3.35;86.97
65756;BME280;52489;47.502;18.940;2023-04-10T03:08:59;98768.75;;;3.34;87.01
65756;BME280;52489;47.502;18.940;2023-04-10T03:10:02;98758.37;;;3.34;86.88
65756;BME280;52489;47.502;18.940;2023-04-10T03:11:07;98763.56;;;3.34;87.03
65756;BME280;52489;47.502;18.940;2023-04-10T03:12:10;98770.78;;;3.32;87.16
65756;BME280;52489;47.502;18.940;2023-04-10T03:13:15;98767.63;;;3.30;87.14
65756;BME280;52489;47.502;18.940;2023-04-10T03:14:18;98762.22;;;3.32;87.06
65756;BME280;52489;47.502;18.940;2023-04-10T03:15:21;98757.81;;;3.32;87.05
65756;BME280;52489;47.502;18.940;2023-04-10T03:16:24;98768.41;;;3.31;86.96
65756;BME280;52489;47.502;18.940;2023-04-10T03:17:27;98770.00;;;3.32;86.97
65756;BME280;52489;47.502;18.940;2023-04-10T03:18:30;98762.69;;;3.29;87.03
65756;BME280;52489;47.502;18.940;2023-04-10T03:19:35;98761.88;;;3.28;87.04
65756;BME280;52489;47.502;18.940;2023-04-10T03:20:39;98767.28;;;3.27;87.15
65756;BME280;52489;47.502;18.940;2023-04-10T03:21:44;98763.59;;;3.23;87.26
65756;BME280;52489;47.502;18.940;2023-04-10T03:22:48;98764.38;;;3.23;87.24
65756;BME280;52489;47.502;18.940;2023-04-10T03:23:52;98766.41;;;3.21;87.35
65756;BME280;52489;47.502;18.940;2023-04-10T03:24:55;98762.78;;;3.22;87.41
65756;BME280;52489;47.502;18.940;2023-04-10T03:25:59;98764.59;;;3.22;87.40
65756;BME280;52489;47.502;18.940;2023-04-10T03:27:03;98769.22;;;3.19;87.43
65756;BME280;52489;47.502;18.940;2023-04-10T03:28:06;98771.25;;;3.17;87.51
65756;BME280;52489;47.502;18.940;2023-04-10T03:29:10;98761.09;;;3.16;87.43
65756;BME280;52489;47.502;18.940;2023-04-10T03:30:13;98768.66;;;3.17;87.52
65756;BME280;52489;47.502;18.940;2023-04-10T03:31:16;98761.88;;;3.16;87.46
65756;BME280;52489;47.502;18.940;2023-04-10T03:32:20;98759.31;;;3.16;87.50
65756;BME280;52489;47.502;18.940;2023-04-10T03:33:23;98761.09;;;3.16;87.50
65756;BME280;52489;47.502;18.940;2023-04-10T03:34:26;98754.38;;;3.15;87.51
65756;BME280;52489;47.502;18.940;2023-04-10T03:35:29;98760.56;;;3.14;87.57
65756;BME280;52489;47.502;18.940;2023-04-10T03:36:33;98764.16;;;3.13;87.61
65756;BME280;52489;47.502;18.940;2023-04-10T03:37:36;98761.56;;;3.13;87.61
65756;BME280;52489;47.502;18.940;2023-04-10T03:38:39;98759.75;;;3.13;87.59
65756;BME280;52489;47.502;18.940;2023-04-10T03:39:42;98760.66;;;3.19;87.35
65756;BME280;52489;47.502;18.940;2023-04-10T03:40:45;98759.88;;;3.18;87.05
65756;BME280;52489;47.502;18.940;2023-04-10T03:41:48;98756.50;;;3.18;87.01
65756;BME280;52489;47.502;18.940;2023-04-10T03:42:51;98761.09;;;3.16;86.80
65756;BME280;52489;47.502;18.940;2023-04-10T03:43:54;98762.69;;;3.17;86.47
65756;BME280;52489;47.502;18.940;2023-04-10T03:44:58;98765.63;;;3.21;86.78
65756;BME280;52489;47.502;18.940;2023-04-10T03:46:02;98759.88;;;3.18;86.73
65756;BME280;52489;47.502;18.940;2023-04-10T03:47:06;98760.66;;;3.19;86.83
65756;BME280;52489;47.502;18.940;2023-04-10T03:48:09;98767.63;;;3.18;86.83
65756;BME280;52489;47.502;18.940;2023-04-10T03:49:12;98767.06;;;3.16;86.90
65756;BME280;52489;47.502;18.940;2023-04-10T03:50:15;98768.34;;;3.14;86.78
65756;BME280;52489;47.502;18.940;2023-04-10T03:51:18;98757.28;;;3.18;86.86
65756;BME280;52489;47.502;18.940;2023-04-10T03:52:26;98765.94;;;3.24;86.60
65756;BME280;52489;47.502;18.940;2023-04-10T03:53:29;98767.75;;;3.24;86.51
65756;BME280;52489;47.502;18.940;2023-04-10T03:54:37;98773.37;;;3.21;86.69
65756;BME280;52489;47.502;18.940;2023-04-10T03:55:40;98766.63;;;3.19;86.67
65756;BME280;52489;47.502;18.940;2023-04-10T03:56:43;98767.19;;;3.10;87.10
65756;BME280;52489;47.502;18.940;2023-04-10T03:57:47;98766.75;;;3.13;87.00
65756;BME280;52489;47.502;18.940;2023-04-10T03:58:50;98777.34;;;3.11;86.98
65756;BME280;52489;47.502;18.940;2023-04-10T03:59:53;98771.28;;;3.06;87.14
65756;BME280;52489;47.502;18.940;2023-04-10T04:00:56;98770.25;;;3.07;87.13
65756;BME280;52489;47.502;18.940;2023-04-10T04:01:59;98774.53;;;3.01;87.38
65756;BME280;52489;47.502;18.940;2023-04-10T04:03:02;98775.56;;;3.00;87.38
65756;BME280;52489;47.502;18.940;2023-04-10T04:04:06;98769.47;;;3.06;87.08
65756;BME280;52489;47.502;18.940;2023-04-10T04:05:09;98765.19;;;3.12;86.79
65756;BME280;52489;47.502;18.940;2023-04-10T04:06:13;98773.84;;;3.06;86.85
65756;BME280;52489;47.502;18.940;2023-04-10T04:07:16;98777.69;;;3.03;86.80
65756;BME280;52489;47.502;18.940;2023-04-10T04:08:19;98781.19;;;2.97;87.12
65756;BME280;52489;47.502;18.940;2023-04-10T04:09:22;98777.25;;;2.94;87.40
65756;BME280;52489;47.502;18.940;2023-04-10T04:10:25;98779.50;;;2.91;87.54
65756;BME280;52489;47.502;18.940;2023-04-10T04:11:28;98780.84;;;2.93;87.68
65756;BME280;52489;47.502;18.940;2023-04-10T04:12:31;98776.78;;;2.97;87.41
65756;BME280;52489;47.502;18.940;2023-04-10T04:13:34;98776.34;;;2.89;87.50
65756;BME280;52489;47.502;18.940;2023-04-10T04:14:37;98773.87;;;2.82;87.78
65756;BME280;52489;47.502;18.940;2023-04-10T04:15:41;98782.53;;;2.88;87.47
65756;BME280;52489;47.502;18.940;2023-04-10T04:16:44;98778.94;;;2.89;87.56
65756;BME280;52489;47.502;18.940;2023-04-10T04:17:47;98776.69;;;2.81;87.65
65756;BME280;52489;47.502;18.940;2023-04-10T04:18:50;98780.28;;;2.91;87.15
65756;BME280;52489;47.502;18.940;2023-04-10T04:19:53;98783.31;;;2.88;87.08
65756;BME280;52489;47.502;18.940;2023-04-10T04:20:56;98785.00;;;2.83;87.67
65756;BME280;52489;47.502;18.940;2023-04-10T04:21:59;98778.94;;;2.77;87.76
65756;BME280;52489;47.502;18.940;2023-04-10T04:23:02;98787.94;;;2.74;87.94
65756;BME280;52489;47.502;18.940;2023-04-10T04:24:06;98782.09;;;2.79;88.02
65756;BME280;52489;47.502;18.940;2023-04-10T04:25:09;98783.53;;;2.87;87.69
65756;BME280;52489;47.502;18.940;2023-04-10T04:26:13;98788.38;;;2.83;87.59
65756;BME280;52489;47.502;18.940;2023-04-10T04:27:16;98785.59;;;2.73;87.99
65756;BME280;52489;47.502;18.940;2023-04-10T04:28:19;98785.25;;;2.69;88.27
65756;BME280;52489;47.502;18.940;2023-04-10T04:29:22;98778.47;;;2.68;88.58
65756;BME280;52489;47.502;18.940;2023-04-10T04:30:25;98782.31;;;2.78;88.20
65756;BME280;52489;47.502;18.940;2023-04-10T04:31:28;98778.94;;;2.77;88.14
65756;BME280;52489;47.502;18.940;2023-04-10T04:32:34;98783.22;;;2.71;88.57
65756;BME280;52489;47.502;18.940;2023-04-10T04:33:37;98776.69;;;2.69;88.78
65756;BME280;52489;47.502;18.940;2023-04-10T04:34:40;98784.69;;;2.67;89.04
65756;BME280;52489;47.502;18.940;2023-04-10T04:35:43;98783.91;;;2.67;88.99
65756;BME280;52489;47.502;18.940;2023-04-10T04:36:47;98785.00;;;2.71;88.82
65756;BME280;52489;47.502;18.940;2023-04-10T04:37:50;98782.44;;;2.71;88.76
65756;BME280;52489;47.502;18.940;2023-04-10T04:38:54;98786.50;;;2.79;88.62
65756;BME280;52489;47.502;18.940;2023-04-10T04:39:57;98783.91;;;2.79;88.44
65756;BME280;52489;47.502;18.940;2023-04-10T04:41:00;98784.22;;;2.70;88.77
65756;BME280;52489;47.502;18.940;2023-04-10T04:42:03;98787.47;;;2.66;88.94
65756;BME280;52489;47.502;18.940;2023-04-10T04:43:06;98783.44;;;2.70;88.97
65756;BME280;52489;47.502;18.940;2023-04-10T04:44:09;98791.88;;;2.65;89.09
65756;BME280;52489;47.502;18.940;2023-04-10T04:45:12;98793.78;;;2.70;89.08
65756;BME280;52489;47.502;18.940;2023-04-10T04:46:15;98792.00;;;2.70;89.17
65756;BME280;52489;47.502;18.940;2023-04-10T04:47:19;98794.78;;;2.69;89.32
65756;BME280;52489;47.502;18.940;2023-04-10T04:48:22;98795.38;;;2.71;89.20
65756;BME280;52489;47.502;18.940;2023-04-10T04:49:25;98790.75;;;2.73;89.31
65756;BME280;52489;47.502;18.940;2023-04-10T04:50:28;98794.78;;;2.81;89.01
65756;BME280;52489;47.502;18.940;2023-04-10T04:51:31;98798.06;;;2.76;89.05
65756;BME280;52489;47.502;18.940;2023-04-10T04:52:34;98797.16;;;2.82;89.06
65756;BME280;52489;47.502;18.940;2023-04-10T04:53:37;98792.19;;;2.81;88.89
65756;BME280;52489;47.502;18.940;2023-04-10T04:54:40;98795.94;;;2.85;88.90
65756;BME280;52489;47.502;18.940;2023-04-10T04:55:43;98801.44;;;2.88;88.64
65756;BME280;52489;47.502;18.940;2023-04-10T04:56:47;98793.78;;;2.93;88.42
65756;BME280;52489;47.502;18.940;2023-04-10T04:57:50;98798.41;;;3.03;88.35
65756;BME280;52489;47.502;18.940;2023-04-10T04:58:53;98792.88;;;3.11;87.91
65756;BME280;52489;47.502;18.940;2023-04-10T04:59:56;98805.91;;;3.16;87.48
65756;BME280;52489;47.502;18.940;2023-04-10T05:00:59;98803.66;;;3.20;87.33
65756;BME280;52489;47.502;18.940;2023-04-10T05:02:02;98803.87;;;3.18;87.52
65756;BME280;52489;47.502;18.940;2023-04-10T05:03:05;98805.47;;;3.19;87.46
65756;BME280;52489;47.502;18.940;2023-04-10T05:04:09;98799.38;;;3.26;87.33
65756;BME280;52489;47.502;18.940;2023-04-10T05:05:12;98795.53;;;3.28;87.12
65756;BME280;52489;47.502;18.940;2023-04-10T05:06:15;98800.81;;;3.33;86.73
65756;BME280;52489;47.502;18.940;2023-04-10T05:07:20;98804.53;;;3.37;86.00
65756;BME280;52489;47.502;18.940;2023-04-10T05:08:23;98806.44;;;3.42;85.76
65756;BME280;52489;47.502;18.940;2023-04-10T05:09:27;98810.38;;;3.45;85.51
65756;BME280;52489;47.502;18.940;2023-04-10T05:10:30;98814.63;;;3.51;85.53
65756;BME280;52489;47.502;18.940;2023-04-10T05:11:33;98805.94;;;3.57;84.91
65756;BME280;52489;47.502;18.940;2023-04-10T05:12:36;98802.44;;;3.63;84.68
65756;BME280;52489;47.502;18.940;2023-04-10T05:13:39;98808.75;;;3.67;84.68
65756;BME280;52489;47.502;18.940;2023-04-10T05:14:43;98811.41;;;3.72;84.45
65756;BME280;52489;47.502;18.940;2023-04-10T05:15:47;98811.50;;;3.77;84.48
65756;BME280;52489;47.502;18.940;2023-04-10T05:16:50;98812.37;;;3.83;83.69
65756;BME280;52489;47.502;18.940;2023-04-10T05:17:53;98811.94;;;3.86;83.45
65756;BME280;52489;47.502;18.940;2023-04-10T05:18:57;98815.16;;;3.93;82.95
65756;BME280;52489;47.502;18.940;2023-04-10T05:20:01;98816.59;;;4.01;83.15
65756;BME280;52489;47.502;18.940;2023-04-10T05:21:05;98817.47;;;4.06;82.70
65756;BME280;52489;47.502;18.940;2023-04-10T05:22:08;98808.97;;;4.11;82.12
65756;BME280;52489;47.502;18.940;2023-04-10T05:23:11;98814.81;;;4.18;82.35
65756;BME280;52489;47.502;18.940;2023-04-10T05:24:14;98807.44;;;4.27;82.24
65756;BME280;52489;47.502;18.940;2023-04-10T05:25:18;98813.81;;;4.36;82.07
65756;BME280;52489;47.502;18.940;2023-04-10T05:26:21;98805.00;;;4.37;82.43
65756;BME280;52489;47.502;18.940;2023-04-10T05:27:24;98810.06;;;4.44;81.80
65756;BME280;52489;47.502;18.940;2023-04-10T05:28:27;98810.38;;;4.47;81.73
65756;BME280;52489;47.502;18.940;2023-04-10T05:29:30;98814.94;;;4.57;81.78
65756;BME280;52489;47.502;18.940;2023-04-10T05:30:33;98817.34;;;4.64;81.33
65756;BME280;52489;47.502;18.940;2023-04-10T05:31:37;98814.38;;;4.72;80.96
65756;BME280;52489;47.502;18.940;2023-04-10T05:32:40;98813.97;;;4.80;81.04
65756;BME280;52489;47.502;18.940;2023-04-10T05:33:43;98816.66;;;4.85;80.92
65756;BME280;52489;47.502;18.940;2023-04-10T05:34:47;98817.25;;;4.92;80.72
65756;BME280;52489;47.502;18.940;2023-04-10T05:35:49;98812.66;;;4.99;80.12
65756;BME280;52489;47.502;18.940;2023-04-10T05:36:53;98822.66;;;5.08;78.95
65756;BME280;52489;47.502;18.940;2023-04-10T05:37:59;98826.19;;;5.18;78.58
65756;BME280;52489;47.502;18.940;2023-04-10T05:39:02;98820.03;;;5.24;78.18
65756;BME280;52489;47.502;18.940;2023-04-10T05:40:06;98820.41;;;5.33;77.44
65756;BME280;52489;47.502;18.940;2023-04-10T05:41:10;98829.41;;;5.47;77.12
65756;BME280;52489;47.502;18.940;2023-04-10T05:42:13;98824.25;;;5.53;76.02
65756;BME280;52489;47.502;18.940;2023-04-10T05:43:16;98818.09;;;5.59;75.84
65756;BME280;52489;47.502;18.940;2023-04-10T05:44:19;98820.28;;;5.67;75.50
65756;BME280;52489;47.502;18.940;2023-04-10T05:45:22;98822.94;;;5.72;76.06
65756;BME280;52489;47.502;18.940;2023-04-10T05:46:25;98821.47;;;5.81;75.78
65756;BME280;52489;47.502;18.940;2023-04-10T05:47:28;98822.06;;;5.88;75.33
65756;BME280;52489;47.502;18.940;2023-04-10T05:48:31;98819.31;;;5.95;75.03
65756;BME280;52489;47.502;18.940;2023-04-10T05:49:34;98820.37;;;5.99;74.46
65756;BME280;52489;47.502;18.940;2023-04-10T05:50:37;98815.78;;;6.06;74.65
65756;BME280;52489;47.502;18.940;2023-04-10T05:51:41;98819.50;;;6.15;73.81
65756;BME280;52489;47.502;18.940;2023-04-10T05:52:44;98828.94;;;6.22;74.03
65756;BME280;52489;47.502;18.940;2023-04-10T05:53:49;98826.66;;;6.30;73.04
65756;BME280;52489;47.502;18.940;2023-04-10T05:54:52;98816.28;;;6.35;73.33